»·PEaware :: N448RA KBFL-KSMX

N448RA :: KBFL-KSMX

FLIGHT INFORMATION

Flight Status: Arrived
Operator: Privately registered:
United States
More flights under this callsign
Pilot: Scott M. (16181)
Aircraft: Unknown
(KODI)
More flights by this aircraft type
Origin: KBFL Meadows
United States
Destination: KSMX Santa Maria Pub/Capt Hancock
United States
More flights between these airports :: More routes between these airports
Route:
File this flight plan on PilotEdge
Remarks:
Altitude:
(Current/Filed)
8,500ft
Speed:
(Current/Filed)
125kts
Departed: 25-Sep-17 05:48 PM
Arrived: 25-Sep-17 06:39 PM
Distance/Time
Traveled:
75nm/0:51
Distance/Time
To Go:
Arrived

Flight Plot

Page will automatically refresh every two minutes.


Map Options




Map Legend


Flown Route
Filed Route
Departure Airport
Arrival Airport
Navaid (VOR, NDB)
Fix

Horizontal Profiles

Position Reports

Time Latitude Longitude Heading Altitude Ground
Speed
25-Sep-17 17:44 35.429368 -119.046093 226 511ft 0kts
25-Sep-17 17:45 35.429368 -119.046093 226 511ft 0kts
25-Sep-17 17:46 35.429369 -119.046092 226 510ft 0kts
25-Sep-17 17:47 35.429369 -119.046092 226 510ft 0kts
25-Sep-17 17:48 35.429369 -119.046092 226 510ft 0kts
25-Sep-17 17:49 35.428749 -119.046880 221 511ft 16kts
25-Sep-17 17:50 35.426262 -119.044789 148 510ft 17kts
25-Sep-17 17:51 35.425797 -119.044700 213 510ft 0kts
25-Sep-17 17:52 35.431209 -119.053186 314 678ft 115kts
25-Sep-17 17:53 35.443813 -119.077660 258 1641ft 132kts
25-Sep-17 17:54 35.426449 -119.098121 221 2465ft 151kts
25-Sep-17 17:55 35.408765 -119.122148 235 3174ft 135kts
25-Sep-17 17:56 35.395330 -119.148025 241 4157ft 142kts
25-Sep-17 17:57 35.383227 -119.175894 245 5111ft 147kts
25-Sep-17 17:58 35.371732 -119.204848 246 6052ft 147kts
25-Sep-17 17:59 35.362187 -119.230007 245 6867ft 146kts
25-Sep-17 18:00 35.351903 -119.257396 247 7758ft 144kts
25-Sep-17 18:01 35.342921 -119.281470 247 8486ft 147kts
25-Sep-17 18:02 35.333435 -119.307019 246 8500ft 152kts
25-Sep-17 18:03 35.323783 -119.333092 246 8504ft 149kts
25-Sep-17 18:04 35.314483 -119.358261 247 8501ft 146kts
25-Sep-17 18:05 35.305331 -119.382883 246 8601ft 144kts
25-Sep-17 18:06 35.295404 -119.409823 246 8599ft 148kts
25-Sep-17 18:07 35.286226 -119.434522 246 8603ft 151kts
25-Sep-17 18:08 35.272678 -119.471037 247 8599ft 150kts
25-Sep-17 18:09 35.261646 -119.500711 246 8600ft 148kts
25-Sep-17 18:10 35.252028 -119.526582 246 8601ft 149kts
25-Sep-17 18:11 35.240706 -119.557005 246 8601ft 151kts
25-Sep-17 18:12 35.228457 -119.589841 246 8599ft 149kts
25-Sep-17 18:13 35.220657 -119.610741 248 8599ft 148kts
25-Sep-17 18:14 35.209502 -119.640762 248 8600ft 148kts
25-Sep-17 18:15 35.202544 -119.659380 246 8602ft 150kts
25-Sep-17 18:16 35.193087 -119.684738 246 8547ft 149kts
25-Sep-17 18:17 35.182885 -119.711937 247 7951ft 147kts
25-Sep-17 18:18 35.172703 -119.739075 247 7347ft 146kts
25-Sep-17 18:19 35.162500 -119.766388 246 6742ft 146kts
25-Sep-17 18:20 35.152034 -119.794259 247 6599ft 147kts
25-Sep-17 18:21 35.141289 -119.823010 245 6598ft 142kts
25-Sep-17 18:22 35.131408 -119.849292 246 6601ft 144kts
25-Sep-17 18:23 35.120654 -119.877849 246 6600ft 144kts
25-Sep-17 18:24 35.110214 -119.905690 246 6600ft 144kts
25-Sep-17 18:25 35.099720 -119.933627 247 6600ft 144kts
25-Sep-17 18:26 35.089136 -119.961709 246 6600ft 144kts
25-Sep-17 18:27 35.078375 -119.990183 246 6601ft 144kts
25-Sep-17 18:28 35.067720 -120.018491 247 6599ft 144kts
25-Sep-17 18:29 35.057097 -120.046563 246 6598ft 144kts
25-Sep-17 18:30 35.046120 -120.075584 246 6600ft 144kts
25-Sep-17 18:31 35.035086 -120.104728 246 6600ft 145kts
25-Sep-17 18:32 35.023488 -120.135330 246 6174ft 145kts
25-Sep-17 18:33 35.008751 -120.174283 247 5519ft 142kts
25-Sep-17 18:34 34.994073 -120.212681 246 4857ft 140kts
25-Sep-17 18:35 34.979451 -120.251218 246 4601ft 138kts
25-Sep-17 18:36 34.964877 -120.289597 246 4501ft 142kts
25-Sep-17 18:37 34.949589 -120.329703 245 3898ft 145kts
25-Sep-17 18:38 34.931738 -120.366961 218 2917ft 144kts
25-Sep-17 18:39 34.903802 -120.389433 218 2020ft 112kts
25-Sep-17 18:40 34.886796 -120.409290 222 1376ft 92kts
25-Sep-17 18:41 34.880443 -120.429901 305 838ft 88kts
25-Sep-17 18:42 34.894428 -120.447732 321 266ft 57kts
25-Sep-17 18:43 34.897708 -120.450021 2 266ft 0kts
25-Sep-17 18:44 34.898265 -120.449882 26 266ft 13kts
25-Sep-17 18:45 34.897909 -120.447523 96 265ft 0kts
25-Sep-17 18:46 34.897908 -120.447518 93 265ft 0kts
25-Sep-17 18:47 34.897908 -120.447519 93 265ft 0kts
25-Sep-17 18:48 34.897908 -120.447519 93 265ft 0kts
25-Sep-17 18:49 34.897908 -120.447519 93 265ft 0kts
25-Sep-17 18:50 34.897908 -120.447519 93 265ft 0kts
25-Sep-17 18:51 34.897908 -120.447519 93 265ft 0kts
25-Sep-17 18:52 34.897302 -120.447152 164 266ft 15kts
25-Sep-17 18:53 34.893308 -120.444950 181 266ft 0kts

Navigation Log

Ident Type
1. KBFL Airport
2. KSMX Airport